sensor_id;sensor_type;location;lat;lon;timestamp;pressure;altitude;pressure_sealevel;temperature;humidity
65756;BME280;69208;47.502;18.940;2023-12-07T00:00:12;97879.12;;;0.20;100.00
65756;BME280;69208;47.502;18.940;2023-12-07T00:01:15;97886.53;;;0.17;100.00
65756;BME280;69208;47.502;18.940;2023-12-07T00:02:19;97881.94;;;0.19;100.00
65756;BME280;69208;47.502;18.940;2023-12-07T00:03:21;97886.00;;;0.15;100.00
65756;BME280;69208;47.502;18.940;2023-12-07T00:04:24;97890.13;;;0.16;100.00
65756;BME280;69208;47.502;18.940;2023-12-07T00:05:27;97888.91;;;0.18;100.00
65756;BME280;69208;47.502;18.940;2023-12-07T00:06:30;97886.62;;;0.22;100.00
65756;BME280;69208;47.502;18.940;2023-12-07T00:07:33;97892.34;;;0.24;100.00
65756;BME280;69208;47.502;18.940;2023-12-07T00:08:36;97897.50;;;0.24;100.00
65756;BME280;69208;47.502;18.940;2023-12-07T00:09:39;97892.56;;;0.22;100.00
65756;BME280;69208;47.502;18.940;2023-12-07T00:10:43;97889.91;;;0.17;100.00
65756;BME280;69208;47.502;18.940;2023-12-07T00:11:46;97894.06;;;0.18;100.00
65756;BME280;69208;47.502;18.940;2023-12-07T00:12:49;97903.13;;;0.21;100.00
65756;BME280;69208;47.502;18.940;2023-12-07T00:13:52;97895.28;;;0.16;100.00
65756;BME280;69208;47.502;18.940;2023-12-07T00:14:55;97901.47;;;0.15;100.00
65756;BME280;69208;47.502;18.940;2023-12-07T00:15:58;97893.94;;;0.13;100.00
65756;BME280;69208;47.502;18.940;2023-12-07T00:17:01;97894.97;;;0.12;100.00
65756;BME280;69208;47.502;18.940;2023-12-07T00:18:04;97888.81;;;0.13;100.00
65756;BME280;69208;47.502;18.940;2023-12-07T00:19:07;97893.59;;;0.21;100.00
65756;BME280;69208;47.502;18.940;2023-12-07T00:20:10;97890.75;;;0.23;100.00
65756;BME280;69208;47.502;18.940;2023-12-07T00:21:14;97884.84;;;0.22;100.00
65756;BME280;69208;47.502;18.940;2023-12-07T00:22:16;97891.69;;;0.17;100.00
65756;BME280;69208;47.502;18.940;2023-12-07T00:23:20;97894.50;;;0.15;100.00
65756;BME280;69208;47.502;18.940;2023-12-07T00:24:23;97893.19;;;0.13;100.00
65756;BME280;69208;47.502;18.940;2023-12-07T00:25:26;97901.12;;;0.11;100.00
65756;BME280;69208;47.502;18.940;2023-12-07T00:26:29;97894.16;;;0.12;100.00
65756;BME280;69208;47.502;18.940;2023-12-07T00:27:32;97896.53;;;0.13;100.00
65756;BME280;69208;47.502;18.940;2023-12-07T00:28:35;97903.22;;;0.14;100.00
65756;BME280;69208;47.502;18.940;2023-12-07T00:29:38;97899.31;;;0.12;100.00
65756;BME280;69208;47.502;18.940;2023-12-07T00:30:41;97904.94;;;0.09;100.00
65756;BME280;69208;47.502;18.940;2023-12-07T00:31:44;97898.78;;;0.10;100.00
65756;BME280;69208;47.502;18.940;2023-12-07T00:32:48;97897.22;;;0.09;100.00
65756;BME280;69208;47.502;18.940;2023-12-07T00:33:50;97904.03;;;0.15;100.00
65756;BME280;69208;47.502;18.940;2023-12-07T00:34:54;97896.75;;;0.12;100.00
65756;BME280;69208;47.502;18.940;2023-12-07T00:35:57;97893.62;;;0.10;100.00
65756;BME280;69208;47.502;18.940;2023-12-07T00:37:00;97898.22;;;0.08;100.00
65756;BME280;69208;47.502;18.940;2023-12-07T00:38:03;97894.62;;;0.09;100.00
65756;BME280;69208;47.502;18.940;2023-12-07T00:39:06;97904.63;;;0.05;100.00
65756;BME280;69208;47.502;18.940;2023-12-07T00:40:09;97897.44;;;0.07;100.00
65756;BME280;69208;47.502;18.940;2023-12-07T00:41:13;97896.44;;;0.08;100.00
65756;BME280;69208;47.502;18.940;2023-12-07T00:42:16;97896.22;;;0.10;100.00
65756;BME280;69208;47.502;18.940;2023-12-07T00:43:19;97902.34;;;0.09;100.00
65756;BME280;69208;47.502;18.940;2023-12-07T00:44:21;97899.25;;;0.07;100.00
65756;BME280;69208;47.502;18.940;2023-12-07T00:45:24;97901.59;;;0.08;100.00
65756;BME280;69208;47.502;18.940;2023-12-07T00:46:28;97896.69;;;0.07;100.00
65756;BME280;69208;47.502;18.940;2023-12-07T00:47:31;97900.81;;;0.08;100.00
65756;BME280;69208;47.502;18.940;2023-12-07T00:48:33;97898.47;;;0.06;100.00
65756;BME280;69208;47.502;18.940;2023-12-07T00:49:40;97898.69;;;0.05;100.00
65756;BME280;69208;47.502;18.940;2023-12-07T00:50:45;97896.13;;;0.05;100.00
65756;BME280;69208;47.502;18.940;2023-12-07T00:51:50;97896.69;;;0.07;100.00
65756;BME280;69208;47.502;18.940;2023-12-07T00:52:53;97899.47;;;0.05;100.00
65756;BME280;69208;47.502;18.940;2023-12-07T00:53:56;97899.72;;;0.04;100.00
65756;BME280;69208;47.502;18.940;2023-12-07T00:54:59;97899.94;;;0.02;100.00
65756;BME280;69208;47.502;18.940;2023-12-07T00:56:14;97894.56;;;0.04;100.00
65756;BME280;69208;47.502;18.940;2023-12-07T00:57:17;97896.81;;;0.00;100.00
65756;BME280;69208;47.502;18.940;2023-12-07T00:58:19;97899.41;;;0.00;100.00
65756;BME280;69208;47.502;18.940;2023-12-07T00:59:22;97900.16;;;0.01;100.00
65756;BME280;69208;47.502;18.940;2023-12-07T01:00:25;97906.31;;;-0.01;100.00
65756;BME280;69208;47.502;18.940;2023-12-07T01:01:29;97900.38;;;-0.01;100.00
65756;BME280;69208;47.502;18.940;2023-12-07T01:02:32;97902.19;;;-0.02;100.00
65756;BME280;69208;47.502;18.940;2023-12-07T01:03:35;97898.84;;;-0.02;100.00
65756;BME280;69208;47.502;18.940;2023-12-07T01:04:39;97898.28;;;-0.04;100.00
65756;BME280;69208;47.502;18.940;2023-12-07T01:05:42;97899.03;;;-0.04;100.00
65756;BME280;69208;47.502;18.940;2023-12-07T01:06:45;97892.09;;;-0.03;100.00
65756;BME280;69208;47.502;18.940;2023-12-07T01:07:49;97890.53;;;-0.04;100.00
65756;BME280;69208;47.502;18.940;2023-12-07T01:08:52;97896.72;;;-0.05;100.00
65756;BME280;69208;47.502;18.940;2023-12-07T01:09:55;97898.28;;;-0.04;100.00
65756;BME280;69208;47.502;18.940;2023-12-07T01:10:58;97888.22;;;-0.06;100.00
65756;BME280;69208;47.502;18.940;2023-12-07T01:12:01;97891.00;;;-0.07;100.00
65756;BME280;69208;47.502;18.940;2023-12-07T01:13:04;97884.06;;;-0.07;100.00
65756;BME280;69208;47.502;18.940;2023-12-07T01:14:08;97893.38;;;-0.06;100.00
65756;BME280;69208;47.502;18.940;2023-12-07T01:15:11;97888.22;;;-0.06;100.00
65756;BME280;69208;47.502;18.940;2023-12-07T01:16:14;97890.22;;;-0.08;100.00
65756;BME280;69208;47.502;18.940;2023-12-07T01:17:17;97893.03;;;-0.09;100.00
65756;BME280;69208;47.502;18.940;2023-12-07T01:18:20;97881.47;;;-0.07;100.00
65756;BME280;69208;47.502;18.940;2023-12-07T01:19:23;97886.53;;;0.00;100.00
65756;BME280;69208;47.502;18.940;2023-12-07T01:20:28;97886.53;;;0.00;100.00
65756;BME280;69208;47.502;18.940;2023-12-07T01:21:31;97889.31;;;-0.02;100.00
65756;BME280;69208;47.502;18.940;2023-12-07T01:22:34;97885.19;;;-0.03;100.00
65756;BME280;69208;47.502;18.940;2023-12-07T01:23:37;97886.19;;;-0.04;100.00
65756;BME280;69208;47.502;18.940;2023-12-07T01:24:40;97883.59;;;-0.04;100.00
65756;BME280;69208;47.502;18.940;2023-12-07T01:25:43;97882.81;;;-0.04;100.00
65756;BME280;69208;47.502;18.940;2023-12-07T01:26:46;97882.03;;;-0.05;100.00
65756;BME280;69208;47.502;18.940;2023-12-07T01:27:50;97875.34;;;-0.06;100.00
65756;BME280;69208;47.502;18.940;2023-12-07T01:28:53;97878.69;;;-0.05;100.00
65756;BME280;69208;47.502;18.940;2023-12-07T01:29:56;97879.47;;;-0.05;100.00
65756;BME280;69208;47.502;18.940;2023-12-07T01:30:59;97881.28;;;-0.05;100.00
65756;BME280;69208;47.502;18.940;2023-12-07T01:32:02;97877.91;;;-0.06;100.00
65756;BME280;69208;47.502;18.940;2023-12-07T01:33:05;97883.06;;;-0.06;100.00
65756;BME280;69208;47.502;18.940;2023-12-07T01:34:07;97882.50;;;-0.08;100.00
65756;BME280;69208;47.502;18.940;2023-12-07T01:35:11;97883.84;;;-0.05;100.00
65756;BME280;69208;47.502;18.940;2023-12-07T01:36:13;97880.25;;;-0.04;100.00
65756;BME280;69208;47.502;18.940;2023-12-07T01:37:16;97881.03;;;-0.04;100.00
65756;BME280;69208;47.502;18.940;2023-12-07T01:38:20;97881.81;;;-0.03;100.00
65756;BME280;69208;47.502;18.940;2023-12-07T01:39:23;97876.66;;;-0.03;100.00
65756;BME280;69208;47.502;18.940;2023-12-07T01:40:26;97882.03;;;-0.05;100.00
65756;BME280;69208;47.502;18.940;2023-12-07T01:41:30;97881.28;;;-0.05;100.00
65756;BME280;69208;47.502;18.940;2023-12-07T01:42:33;97878.69;;;-0.05;100.00
65756;BME280;69208;47.502;18.940;2023-12-07T01:43:36;97886.62;;;-0.07;100.00
65756;BME280;69208;47.502;18.940;2023-12-07T01:44:40;97880.72;;;-0.07;100.00
65756;BME280;69208;47.502;18.940;2023-12-07T01:45:43;97881.72;;;-0.08;100.00
65756;BME280;69208;47.502;18.940;2023-12-07T01:46:46;97875.81;;;-0.09;100.00
65756;BME280;69208;47.502;18.940;2023-12-07T01:47:50;97876.34;;;-0.07;100.00
65756;BME280;69208;47.502;18.940;2023-12-07T01:48:55;97878.12;;;-0.07;100.00
65756;BME280;69208;47.502;18.940;2023-12-07T01:49:59;97871.97;;;-0.06;100.00
65756;BME280;69208;47.502;18.940;2023-12-07T01:51:03;97875.34;;;-0.06;100.00
65756;BME280;69208;47.502;18.940;2023-12-07T01:52:06;97875.56;;;-0.07;100.00
65756;BME280;69208;47.502;18.940;2023-12-07T01:53:09;97877.09;;;-0.06;100.00
65756;BME280;69208;47.502;18.940;2023-12-07T01:54:12;97876.34;;;-0.07;100.00
65756;BME280;69208;47.502;18.940;2023-12-07T01:55:16;97876.56;;;-0.08;100.00
65756;BME280;69208;47.502;18.940;2023-12-07T01:56:20;97874.00;;;-0.08;100.00
65756;BME280;69208;47.502;18.940;2023-12-07T01:57:24;97874.00;;;-0.08;100.00
65756;BME280;69208;47.502;18.940;2023-12-07T01:58:27;97876.13;;;-0.05;100.00
65756;BME280;69208;47.502;18.940;2023-12-07T01:59:31;97877.09;;;-0.06;100.00
65756;BME280;69208;47.502;18.940;2023-12-07T02:00:35;97878.91;;;-0.07;100.00
65756;BME280;69208;47.502;18.940;2023-12-07T02:01:38;97883.53;;;-0.09;100.00
65756;BME280;69208;47.502;18.940;2023-12-07T02:02:44;97879.16;;;-0.08;100.00
65756;BME280;69208;47.502;18.940;2023-12-07T02:03:47;97877.34;;;-0.08;100.00
65756;BME280;69208;47.502;18.940;2023-12-07T02:04:50;97872.66;;;-0.11;100.00
65756;BME280;69208;47.502;18.940;2023-12-07T02:05:54;97874.47;;;-0.11;100.00
65756;BME280;69208;47.502;18.940;2023-12-07T02:06:59;97877.91;;;-0.06;100.00
65756;BME280;69208;47.502;18.940;2023-12-07T02:08:04;97878.69;;;-0.05;100.00
65756;BME280;69208;47.502;18.940;2023-12-07T02:09:07;97879.94;;;-0.08;100.00
65756;BME280;69208;47.502;18.940;2023-12-07T02:10:11;97882.72;;;-0.09;100.00
65756;BME280;69208;47.502;18.940;2023-12-07T02:11:16;97879.38;;;-0.10;100.00
65756;BME280;69208;47.502;18.940;2023-12-07T02:12:20;97878.84;;;-0.12;100.00
65756;BME280;69208;47.502;18.940;2023-12-07T02:13:23;97881.63;;;-0.13;100.00
65756;BME280;69208;47.502;18.940;2023-12-07T02:14:27;97879.63;;;-0.11;100.00
65756;BME280;69208;47.502;18.940;2023-12-07T02:15:30;97881.16;;;-0.10;100.00
65756;BME280;69208;47.502;18.940;2023-12-07T02:16:38;97882.97;;;-0.11;100.00
65756;BME280;69208;47.502;18.940;2023-12-07T02:18:03;97883.75;;;-0.10;100.00
65756;BME280;69208;47.502;18.940;2023-12-07T02:20:51;97876.56;;;-0.08;100.00
65756;BME280;69208;47.502;18.940;2023-12-07T02:21:59;97869.63;;;-0.08;100.00
65756;BME280;69208;47.502;18.940;2023-12-07T02:23:07;97873.53;;;-0.05;100.00
65756;BME280;69208;47.502;18.940;2023-12-07T02:24:11;97870.97;;;-0.05;100.00
65756;BME280;69208;47.502;18.940;2023-12-07T02:25:29;97873.53;;;-0.05;100.00
65756;BME280;69208;47.502;18.940;2023-12-07T02:26:35;97877.91;;;-0.06;100.00
65756;BME280;69208;47.502;18.940;2023-12-07T02:27:40;97873.28;;;-0.04;100.00
65756;BME280;69208;47.502;18.940;2023-12-07T02:28:43;97873.28;;;-0.04;100.00
65756;BME280;69208;47.502;18.940;2023-12-07T02:29:46;97870.50;;;-0.02;100.00
65756;BME280;69208;47.502;18.940;2023-12-07T02:30:49;97866.13;;;-0.02;100.00
65756;BME280;69208;47.502;18.940;2023-12-07T02:31:52;97867.37;;;-0.04;100.00
65756;BME280;69208;47.502;18.940;2023-12-07T02:32:55;97873.28;;;-0.04;100.00
65756;BME280;69208;47.502;18.940;2023-12-07T02:33:58;97867.16;;;-0.03;100.00
65756;BME280;69208;47.502;18.940;2023-12-07T02:35:01;97869.72;;;-0.03;100.00
65756;BME280;69208;47.502;18.940;2023-12-07T02:36:04;97868.72;;;-0.02;100.00
65756;BME280;69208;47.502;18.940;2023-12-07T02:37:08;97873.84;;;-0.02;100.00
65756;BME280;69208;47.502;18.940;2023-12-07T02:38:13;97866.69;;;0.01;100.00
65756;BME280;69208;47.502;18.940;2023-12-07T02:39:17;97865.91;;;0.00;100.00
65756;BME280;69208;47.502;18.940;2023-12-07T02:40:25;97872.63;;;0.01;100.00
65756;BME280;69208;47.502;18.940;2023-12-07T02:41:31;97873.84;;;-0.02;100.00
65756;BME280;69208;47.502;18.940;2023-12-07T02:42:34;97872.84;;;-0.01;100.00
65756;BME280;69208;47.502;18.940;2023-12-07T02:43:38;97873.66;;;0.00;100.00
65756;BME280;69208;47.502;18.940;2023-12-07T02:44:42;97884.72;;;0.01;100.00
65756;BME280;69208;47.502;18.940;2023-12-07T02:45:45;97875.97;;;0.02;100.00
65756;BME280;69208;47.502;18.940;2023-12-07T02:46:48;97875.41;;;-0.01;100.00
65756;BME280;69208;47.502;18.940;2023-12-07T02:47:51;97878.22;;;-0.02;100.00
65756;BME280;69208;47.502;18.940;2023-12-07T02:48:54;97876.44;;;-0.02;100.00
65756;BME280;69208;47.502;18.940;2023-12-07T02:49:57;97880.34;;;0.01;100.00
65756;BME280;69208;47.502;18.940;2023-12-07T02:51:00;97878.78;;;0.00;100.00
65756;BME280;69208;47.502;18.940;2023-12-07T02:52:03;97883.13;;;-0.01;100.00
65756;BME280;69208;47.502;18.940;2023-12-07T02:53:06;97876.22;;;0.00;100.00
65756;BME280;69208;47.502;18.940;2023-12-07T02:54:09;97872.06;;;-0.01;100.00
65756;BME280;69208;47.502;18.940;2023-12-07T02:55:12;97880.56;;;-0.01;100.00
65756;BME280;69208;47.502;18.940;2023-12-07T02:56:15;97881.38;;;0.00;100.00
65756;BME280;69208;47.502;18.940;2023-12-07T02:57:18;97879.78;;;-0.01;100.00
65756;BME280;69208;47.502;18.940;2023-12-07T02:58:21;97879.00;;;-0.02;100.00
65756;BME280;69208;47.502;18.940;2023-12-07T02:59:24;97874.41;;;0.01;100.00
65756;BME280;69208;47.502;18.940;2023-12-07T03:00:27;97880.34;;;0.01;100.00
65756;BME280;69208;47.502;18.940;2023-12-07T03:01:29;97884.47;;;0.02;100.00
65756;BME280;69208;47.502;18.940;2023-12-07T03:02:37;97883.69;;;0.02;100.00
65756;BME280;69208;47.502;18.940;2023-12-07T03:03:40;97882.47;;;0.04;100.00
65756;BME280;69208;47.502;18.940;2023-12-07T03:04:44;97882.69;;;0.03;100.00
65756;BME280;69208;47.502;18.940;2023-12-07T03:05:48;97881.69;;;0.04;100.00
65756;BME280;69208;47.502;18.940;2023-12-07T03:06:51;97879.09;;;0.04;100.00
65756;BME280;69208;47.502;18.940;2023-12-07T03:07:54;97880.09;;;0.03;100.00
65756;BME280;69208;47.502;18.940;2023-12-07T03:08:57;97883.69;;;0.02;100.00
65756;BME280;69208;47.502;18.940;2023-12-07T03:10:00;97885.50;;;0.01;100.00
65756;BME280;69208;47.502;18.940;2023-12-07T03:11:05;97888.06;;;0.01;100.00
65756;BME280;69208;47.502;18.940;2023-12-07T03:12:08;97890.88;;;-0.01;100.00
65756;BME280;69208;47.502;18.940;2023-12-07T03:13:11;97890.88;;;-0.01;100.00
65756;BME280;69208;47.502;18.940;2023-12-07T03:14:14;97885.19;;;-0.03;100.00
65756;BME280;69208;47.502;18.940;2023-12-07T03:15:17;97893.44;;;-0.01;100.00
65756;BME280;69208;47.502;18.940;2023-12-07T03:16:20;97893.44;;;-0.01;100.00
65756;BME280;69208;47.502;18.940;2023-12-07T03:17:23;97893.78;;;0.03;100.00
65756;BME280;69208;47.502;18.940;2023-12-07T03:18:26;97892.50;;;0.06;100.00
65756;BME280;69208;47.502;18.940;2023-12-07T03:19:29;97889.16;;;0.05;100.00
65756;BME280;69208;47.502;18.940;2023-12-07T03:20:32;97889.16;;;0.05;100.00
65756;BME280;69208;47.502;18.940;2023-12-07T03:21:39;97897.91;;;0.04;100.00
65756;BME280;69208;47.502;18.940;2023-12-07T03:22:42;97892.97;;;0.03;100.00
65756;BME280;69208;47.502;18.940;2023-12-07T03:23:45;97900.50;;;0.04;100.00
65756;BME280;69208;47.502;18.940;2023-12-07T03:24:51;97891.22;;;0.03;100.00
65756;BME280;69208;47.502;18.940;2023-12-07T03:25:55;97894.78;;;0.02;100.00
65756;BME280;69208;47.502;18.940;2023-12-07T03:26:58;97895.03;;;0.01;100.00
65756;BME280;69208;47.502;18.940;2023-12-07T03:28:01;97898.37;;;0.01;100.00
65756;BME280;69208;47.502;18.940;2023-12-07T03:29:04;97892.97;;;0.03;100.00
65756;BME280;69208;47.502;18.940;2023-12-07T03:30:07;97897.34;;;0.02;100.00
65756;BME280;69208;47.502;18.940;2023-12-07T03:31:10;97899.94;;;0.02;100.00
65756;BME280;69208;47.502;18.940;2023-12-07T03:32:13;97899.63;;;-0.02;100.00
65756;BME280;69208;47.502;18.940;2023-12-07T03:33:16;97891.66;;;0.00;100.00
65756;BME280;69208;47.502;18.940;2023-12-07T03:34:19;97894.47;;;-0.02;100.00
65756;BME280;69208;47.502;18.940;2023-12-07T03:35:22;97897.03;;;-0.02;100.00
65756;BME280;69208;47.502;18.940;2023-12-07T03:36:25;97891.88;;;-0.02;100.00
65756;BME280;69208;47.502;18.940;2023-12-07T03:37:28;97893.91;;;-0.04;100.00
65756;BME280;69208;47.502;18.940;2023-12-07T03:38:32;97896.25;;;-0.02;100.00
65756;BME280;69208;47.502;18.940;2023-12-07T03:39:35;97897.03;;;-0.02;100.00
65756;BME280;69208;47.502;18.940;2023-12-07T03:40:37;97897.72;;;-0.06;100.00
65756;BME280;69208;47.502;18.940;2023-12-07T03:41:40;97895.94;;;-0.06;100.00
65756;BME280;69208;47.502;18.940;2023-12-07T03:42:44;97908.00;;;-0.06;100.00
65756;BME280;69208;47.502;18.940;2023-12-07T03:43:58;97900.28;;;-0.06;100.00
65756;BME280;69208;47.502;18.940;2023-12-07T03:45:01;97904.44;;;-0.05;100.00
65756;BME280;69208;47.502;18.940;2023-12-07T03:46:07;97898.06;;;-0.03;100.00
65756;BME280;69208;47.502;18.940;2023-12-07T03:47:10;97898.59;;;-0.01;100.00
65756;BME280;69208;47.502;18.940;2023-12-07T03:48:13;97904.19;;;-0.04;100.00
65756;BME280;69208;47.502;18.940;2023-12-07T03:49:16;97903.41;;;-0.04;100.00
65756;BME280;69208;47.502;18.940;2023-12-07T03:50:20;97901.62;;;-0.04;100.00
65756;BME280;69208;47.502;18.940;2023-12-07T03:51:22;97898.72;;;-0.07;100.00
65756;BME280;69208;47.502;18.940;2023-12-07T03:52:25;97905.44;;;-0.06;100.00
65756;BME280;69208;47.502;18.940;2023-12-07T03:53:28;97900.28;;;-0.06;100.00
65756;BME280;69208;47.502;18.940;2023-12-07T03:54:31;97912.37;;;-0.07;100.00
65756;BME280;69208;47.502;18.940;2023-12-07T03:55:34;97907.00;;;-0.05;100.00
65756;BME280;69208;47.502;18.940;2023-12-07T03:56:37;97907.78;;;-0.05;100.00
65756;BME280;69208;47.502;18.940;2023-12-07T03:57:40;97903.66;;;-0.06;100.00
65756;BME280;69208;47.502;18.940;2023-12-07T03:58:43;97907.13;;;0.00;100.00
65756;BME280;69208;47.502;18.940;2023-12-07T03:59:46;97908.12;;;-0.01;100.00
65756;BME280;69208;47.502;18.940;2023-12-07T04:00:49;97906.78;;;-0.04;100.00
65756;BME280;69208;47.502;18.940;2023-12-07T04:01:52;97904.19;;;-0.04;100.00
65756;BME280;69208;47.502;18.940;2023-12-07T04:02:55;97907.91;;;0.01;100.00
65756;BME280;69208;47.502;18.940;2023-12-07T04:03:58;97908.69;;;0.01;100.00
65756;BME280;69208;47.502;18.940;2023-12-07T04:05:03;97901.97;;;0.00;100.00
65756;BME280;69208;47.502;18.940;2023-12-07T04:06:07;97903.97;;;-0.02;100.00
65756;BME280;69208;47.502;18.940;2023-12-07T04:07:10;97907.78;;;-0.05;100.00
65756;BME280;69208;47.502;18.940;2023-12-07T04:08:13;97907.78;;;-0.05;100.00
65756;BME280;69208;47.502;18.940;2023-12-07T04:09:17;97905.22;;;-0.05;100.00
65756;BME280;69208;47.502;18.940;2023-12-07T04:10:20;97917.31;;;-0.05;100.00
65756;BME280;69208;47.502;18.940;2023-12-07T04:11:23;97916.53;;;-0.06;100.00
65756;BME280;69208;47.502;18.940;2023-12-07T04:12:26;97920.87;;;-0.06;100.00
65756;BME280;69208;47.502;18.940;2023-12-07T04:13:29;97920.34;;;-0.08;100.00
65756;BME280;69208;47.502;18.940;2023-12-07T04:14:32;97922.38;;;-0.10;100.00
65756;BME280;69208;47.502;18.940;2023-12-07T04:15:35;97923.38;;;-0.11;100.00
65756;BME280;69208;47.502;18.940;2023-12-07T04:16:38;97926.16;;;-0.13;100.00
65756;BME280;69208;47.502;18.940;2023-12-07T04:17:41;97924.38;;;-0.12;100.00
65756;BME280;69208;47.502;18.940;2023-12-07T04:18:44;97920.87;;;-0.06;100.00
65756;BME280;69208;47.502;18.940;2023-12-07T04:19:47;97923.47;;;-0.06;100.00
65756;BME280;69208;47.502;18.940;2023-12-07T04:20:50;97921.69;;;-0.06;100.00
65756;BME280;69208;47.502;18.940;2023-12-07T04:21:53;97920.03;;;-0.12;100.00
65756;BME280;69208;47.502;18.940;2023-12-07T04:22:56;97922.22;;;-0.04;100.00
65756;BME280;69208;47.502;18.940;2023-12-07T04:23:59;97928.41;;;-0.05;100.00
65756;BME280;69208;47.502;18.940;2023-12-07T04:25:02;97926.50;;;-0.09;100.00
65756;BME280;69208;47.502;18.940;2023-12-07T04:26:06;97923.59;;;-0.13;100.00
65756;BME280;69208;47.502;18.940;2023-12-07T04:27:09;97926.16;;;-0.13;100.00
65756;BME280;69208;47.502;18.940;2023-12-07T04:28:12;97924.38;;;-0.12;100.00
65756;BME280;69208;47.502;18.940;2023-12-07T04:29:15;97929.88;;;-0.09;100.00
65756;BME280;69208;47.502;18.940;2023-12-07T04:30:18;97920.22;;;-0.02;100.00
65756;BME280;69208;47.502;18.940;2023-12-07T04:31:21;97918.56;;;-0.08;100.00
65756;BME280;69208;47.502;18.940;2023-12-07T04:32:24;97927.50;;;-0.10;100.00
65756;BME280;69208;47.502;18.940;2023-12-07T04:33:28;97923.13;;;-0.10;100.00
65756;BME280;69208;47.502;18.940;2023-12-07T04:34:31;97922.59;;;-0.12;100.00
65756;BME280;69208;47.502;18.940;2023-12-07T04:35:35;97923.91;;;-0.09;100.00
65756;BME280;69208;47.502;18.940;2023-12-07T04:36:37;97932.34;;;-0.14;100.00
65756;BME280;69208;47.502;18.940;2023-12-07T04:37:40;97928.53;;;-0.11;100.00
65756;BME280;69208;47.502;18.940;2023-12-07T04:38:43;97932.09;;;-0.12;100.00
65756;BME280;69208;47.502;18.940;2023-12-07T04:39:46;97930.53;;;-0.13;100.00
65756;BME280;69208;47.502;18.940;2023-12-07T04:40:49;97941.16;;;-0.10;100.00
65756;BME280;69208;47.502;18.940;2023-12-07T04:41:52;97931.88;;;-0.11;100.00
65756;BME280;69208;47.502;18.940;2023-12-07T04:42:55;97936.25;;;-0.11;100.00
65756;BME280;69208;47.502;18.940;2023-12-07T04:43:58;97938.59;;;-0.10;100.00
65756;BME280;69208;47.502;18.940;2023-12-07T04:45:01;97936.00;;;-0.10;100.00
65756;BME280;69208;47.502;18.940;2023-12-07T04:46:04;97937.81;;;-0.10;100.00
65756;BME280;69208;47.502;18.940;2023-12-07T04:47:07;97944.50;;;-0.09;100.00
65756;BME280;69208;47.502;18.940;2023-12-07T04:48:10;97946.09;;;-0.08;100.00
65756;BME280;69208;47.502;18.940;2023-12-07T04:49:13;97943.28;;;-0.07;100.00
65756;BME280;69208;47.502;18.940;2023-12-07T04:50:17;97947.19;;;-0.04;100.00
65756;BME280;69208;47.502;18.940;2023-12-07T04:51:20;97949.22;;;-0.06;100.00
65756;BME280;69208;47.502;18.940;2023-12-07T04:52:22;97945.84;;;-0.07;100.00
65756;BME280;69208;47.502;18.940;2023-12-07T04:53:26;97950.22;;;-0.07;100.00
65756;BME280;69208;47.502;18.940;2023-12-07T04:54:29;97941.28;;;-0.05;100.00
65756;BME280;69208;47.502;18.940;2023-12-07T04:55:32;97945.41;;;-0.04;100.00
65756;BME280;69208;47.502;18.940;2023-12-07T04:56:35;97949.56;;;-0.03;100.00
65756;BME280;69208;47.502;18.940;2023-12-07T04:57:38;97949.00;;;-0.05;100.00
65756;BME280;69208;47.502;18.940;2023-12-07T04:58:41;97946.62;;;-0.06;100.00
65756;BME280;69208;47.502;18.940;2023-12-07T04:59:44;97953.13;;;-0.04;100.00
65756;BME280;69208;47.502;18.940;2023-12-07T05:00:50;97952.91;;;-0.02;100.00
65756;BME280;69208;47.502;18.940;2023-12-07T05:01:53;97953.91;;;-0.03;100.00
65756;BME280;69208;47.502;18.940;2023-12-07T05:02:56;97959.06;;;-0.03;100.00
65756;BME280;69208;47.502;18.940;2023-12-07T05:03:59;97958.06;;;-0.02;100.00
65756;BME280;69208;47.502;18.940;2023-12-07T05:05:02;97970.16;;;-0.03;100.00
65756;BME280;69208;47.502;18.940;2023-12-07T05:06:05;97954.72;;;-0.03;100.00
65756;BME280;69208;47.502;18.940;2023-12-07T05:07:08;97950.53;;;-0.04;100.00
65756;BME280;69208;47.502;18.940;2023-12-07T05:08:12;97961.53;;;0.04;100.00
65756;BME280;69208;47.502;18.940;2023-12-07T05:09:14;97955.25;;;-0.01;100.00
65756;BME280;69208;47.502;18.940;2023-12-07T05:10:18;97956.81;;;0.01;100.00
65756;BME280;69208;47.502;18.940;2023-12-07T05:11:20;97969.91;;;-0.01;100.00
65756;BME280;69208;47.502;18.940;2023-12-07T05:12:23;97972.94;;;-0.04;100.00
65756;BME280;69208;47.502;18.940;2023-12-07T05:13:26;97971.38;;;-0.05;100.00
65756;BME280;69208;47.502;18.940;2023-12-07T05:14:31;97970.25;;;-0.09;100.00
65756;BME280;69208;47.502;18.940;2023-12-07T05:15:34;97978.78;;;-0.09;100.00
65756;BME280;69208;47.502;18.940;2023-12-07T05:16:37;97967.22;;;-0.06;100.00
65756;BME280;69208;47.502;18.940;2023-12-07T05:17:40;97969.34;;;-0.03;100.00
65756;BME280;69208;47.502;18.940;2023-12-07T05:18:43;97967.59;;;-0.03;100.00
65756;BME280;69208;47.502;18.940;2023-12-07T05:19:47;97972.50;;;-0.01;100.00
65756;BME280;69208;47.502;18.940;2023-12-07T05:20:50;97973.97;;;-0.05;100.00
65756;BME280;69208;47.502;18.940;2023-12-07T05:21:53;97965.47;;;-0.06;100.00
65756;BME280;69208;47.502;18.940;2023-12-07T05:22:56;97977.88;;;-0.03;100.00
65756;BME280;69208;47.502;18.940;2023-12-07T05:23:59;97976.31;;;-0.04;100.00
65756;BME280;69208;47.502;18.940;2023-12-07T05:25:03;97978.09;;;-0.04;100.00
65756;BME280;69208;47.502;18.940;2023-12-07T05:26:07;97973.19;;;-0.06;100.00
65756;BME280;69208;47.502;18.940;2023-12-07T05:27:11;97977.97;;;-0.09;100.00
65756;BME280;69208;47.502;18.940;2023-12-07T05:28:13;97986.72;;;-0.10;100.00
65756;BME280;69208;47.502;18.940;2023-12-07T05:29:17;97979.00;;;-0.10;100.00
65756;BME280;69208;47.502;18.940;2023-12-07T05:30:20;97982.69;;;-0.06;100.00